createdAt,value
2022-08-10T00:01:42.092Z,99.90
2022-08-10T00:04:29.647Z,99.90
2022-08-10T00:07:17.254Z,99.90
2022-08-10T00:10:06.208Z,99.90
2022-08-10T00:12:55.351Z,99.90
2022-08-10T00:15:53.358Z,99.90
2022-08-10T00:18:42.203Z,99.90
2022-08-10T00:21:29.714Z,99.90
2022-08-10T00:24:17.312Z,99.90
2022-08-10T00:28:01.917Z,99.90
2022-08-10T00:30:13.228Z,99.90
2022-08-10T00:33:00.818Z,99.90
2022-08-10T00:35:48.897Z,99.90
2022-08-10T00:38:37.595Z,99.90
2022-08-10T00:41:25.352Z,99.90
2022-08-10T00:44:12.913Z,99.90
2022-08-10T00:47:01.018Z,99.90
2022-08-10T00:49:49.603Z,99.90
2022-08-10T00:52:39.143Z,99.90
2022-08-10T00:55:27.388Z,99.90
2022-08-10T00:58:15.698Z,99.90
2022-08-10T01:01:03.289Z,99.90
2022-08-10T01:04:40.027Z,99.90
2022-08-10T01:07:11.513Z,99.90
2022-08-10T01:10:23.032Z,99.90
2022-08-10T01:14:10.328Z,99.90
2022-08-10T01:17:11.228Z,99.90
2022-08-10T01:20:35.350Z,99.90
2022-08-10T01:24:06.017Z,99.90
2022-08-10T01:27:17.948Z,99.90
2022-08-10T01:30:15.599Z,99.90
2022-08-10T01:33:31.879Z,99.90
2022-08-10T01:36:50.189Z,99.90
2022-08-10T01:39:45.526Z,99.90
2022-08-10T01:42:37.404Z,99.90
2022-08-10T01:45:27.992Z,99.90
2022-08-10T01:48:42.402Z,99.90
2022-08-10T01:51:40.517Z,99.90
2022-08-10T01:54:31.202Z,99.90
2022-08-10T01:57:22.122Z,99.90
2022-08-10T02:00:13.038Z,99.90
2022-08-10T02:03:04.703Z,99.90
2022-08-10T02:05:57.172Z,99.90
2022-08-10T02:08:50.036Z,99.90
2022-08-10T02:12:07.221Z,99.90
2022-08-10T02:15:02.408Z,99.90
2022-08-10T02:18:01.948Z,99.90
2022-08-10T02:20:51.988Z,99.90
2022-08-10T02:23:43.553Z,99.90
2022-08-10T02:26:32.473Z,99.90
2022-08-10T02:29:21.942Z,99.90
2022-08-10T02:32:11.497Z,99.90
2022-08-10T02:35:03.092Z,99.90
2022-08-10T02:37:55.118Z,99.90
2022-08-10T02:45:01.234Z,99.90
2022-08-10T02:45:22.200Z,99.90
2022-08-10T02:47:51.260Z,99.90
2022-08-10T02:50:45.328Z,99.90
2022-08-10T02:53:55.430Z,99.90
2022-08-10T02:57:08.568Z,99.90
2022-08-10T03:00:02.580Z,99.90
2022-08-10T03:02:52.444Z,99.90
2022-08-10T03:05:42.532Z,99.90
2022-08-10T03:08:36.728Z,99.90
2022-08-10T03:12:36.130Z,99.90
2022-08-10T03:14:39.899Z,99.90
2022-08-10T03:17:29.589Z,99.90
2022-08-10T03:20:36.870Z,99.90
2022-08-10T03:23:29.408Z,99.90
2022-08-10T03:26:20.545Z,99.90
2022-08-10T03:29:09.842Z,99.90
2022-08-10T03:31:58.682Z,99.90
2022-08-10T03:34:46.893Z,99.90
2022-08-10T03:37:34.712Z,99.90
2022-08-10T03:40:22.642Z,99.90
2022-08-10T03:43:31.242Z,99.90
2022-08-10T03:46:23.754Z,99.90
2022-08-10T03:49:13.082Z,99.90
2022-08-10T03:52:01.875Z,99.90
2022-08-10T03:54:53.197Z,99.90
2022-08-10T03:57:49.598Z,99.90
2022-08-10T04:00:38.746Z,99.90
2022-08-10T04:03:29.290Z,99.90
2022-08-10T04:06:18.137Z,99.90
2022-08-10T04:09:06.232Z,99.90
2022-08-10T04:11:53.982Z,99.90
2022-08-10T04:14:51.181Z,99.90
2022-08-10T04:18:00.186Z,99.90
2022-08-10T04:20:59.131Z,99.90
2022-08-10T04:23:53.359Z,99.90
2022-08-10T04:26:42.462Z,99.90
2022-08-10T04:29:30.377Z,99.90
2022-08-10T04:32:22.092Z,99.90
2022-08-10T04:35:11.564Z,99.90
2022-08-10T04:38:01.274Z,99.90
2022-08-10T04:40:48.972Z,99.90
2022-08-10T04:43:37.371Z,99.90
2022-08-10T04:46:56.039Z,99.90
2022-08-10T04:49:54.795Z,99.90
2022-08-10T04:52:39.922Z,99.90
2022-08-10T04:55:27.483Z,99.90
2022-08-10T04:58:15.022Z,99.90
2022-08-10T05:01:03.952Z,99.90
2022-08-10T05:04:35.097Z,99.90
2022-08-10T05:06:59.017Z,99.90
2022-08-10T05:10:01.629Z,99.90
2022-08-10T05:12:52.732Z,99.90
2022-08-10T05:15:43.929Z,99.90
2022-08-10T05:18:31.433Z,99.90
2022-08-10T05:22:03.295Z,99.90
2022-08-10T05:24:26.493Z,99.90
2022-08-10T05:27:14.125Z,99.90
2022-08-10T05:30:03.345Z,99.90
2022-08-10T05:32:56.691Z,99.90
2022-08-10T05:35:52.831Z,99.90
2022-08-10T05:38:46.947Z,99.90
2022-08-10T05:41:35.532Z,99.90
2022-08-10T05:44:24.909Z,99.90
2022-08-10T05:47:12.900Z,99.90
2022-08-10T05:50:00.433Z,99.90
2022-08-10T05:52:48.364Z,99.90
2022-08-10T05:55:36.103Z,99.90
2022-08-10T05:58:23.706Z,99.90
2022-08-10T06:01:16.883Z,99.90
2022-08-10T06:04:06.788Z,99.90
2022-08-10T06:06:56.256Z,99.90
2022-08-10T06:09:59.707Z,99.90
2022-08-10T06:13:26.583Z,99.90
2022-08-10T06:16:17.241Z,99.90
2022-08-10T06:19:05.577Z,99.90
2022-08-10T06:22:01.235Z,99.90
2022-08-10T06:25:21.527Z,99.90
2022-08-10T06:28:01.062Z,99.90
2022-08-10T06:30:52.384Z,99.90
2022-08-10T06:33:43.857Z,99.90
2022-08-10T06:36:34.262Z,99.90
2022-08-10T06:39:34.062Z,99.90
2022-08-10T06:42:43.498Z,99.90
2022-08-10T06:45:42.522Z,99.90
2022-08-10T06:48:46.117Z,99.90
2022-08-10T06:51:38.562Z,99.90
2022-08-10T06:54:32.623Z,99.90
2022-08-10T06:57:24.970Z,99.90
2022-08-10T07:00:19.685Z,99.90
2022-08-10T07:03:12.664Z,99.90
2022-08-10T07:06:03.511Z,99.90
2022-08-10T07:08:53.417Z,99.90
2022-08-10T07:11:45.143Z,99.90
2022-08-10T07:14:38.843Z,99.90
2022-08-10T07:17:28.707Z,99.90
2022-08-10T07:20:19.598Z,99.90
2022-08-10T07:23:57.490Z,99.90
2022-08-10T07:26:21.222Z,99.90
2022-08-10T07:29:52.918Z,99.90
2022-08-10T07:32:20.269Z,99.90
2022-08-10T07:35:13.584Z,99.90
2022-08-10T07:38:04.722Z,99.90
2022-08-10T07:40:54.728Z,99.90
2022-08-10T07:43:45.874Z,99.90
2022-08-10T07:46:41.297Z,99.90
2022-08-10T07:49:42.464Z,99.90
2022-08-10T07:52:34.494Z,99.90
2022-08-10T07:56:03.589Z,99.90
2022-08-10T07:58:47.477Z,99.90
2022-08-10T08:01:50.639Z,99.90
2022-08-10T08:04:39.794Z,99.90
2022-08-10T08:07:30.197Z,99.90
2022-08-10T08:10:19.782Z,99.90
2022-08-10T08:13:08.337Z,99.90
2022-08-10T08:16:16.986Z,99.90
2022-08-10T08:19:27.966Z,99.90
2022-08-10T08:24:07.380Z,99.90
2022-08-10T08:25:25.682Z,99.90
2022-08-10T08:28:15.193Z,99.90
2022-08-10T08:31:04.676Z,99.90
2022-08-10T08:33:53.972Z,99.90
2022-08-10T08:36:44.587Z,99.90
2022-08-10T08:39:33.674Z,99.90
2022-08-10T08:42:57.427Z,99.90
2022-08-10T08:46:12.657Z,99.90
2022-08-10T08:50:07.929Z,99.90
2022-08-10T08:52:57.182Z,99.90
2022-08-10T08:56:06.079Z,99.90
2022-08-10T08:59:37.247Z,99.90
2022-08-10T09:02:54.291Z,99.90
2022-08-10T09:06:40.555Z,99.90
2022-08-10T09:10:01.184Z,99.90
2022-08-10T09:13:03.608Z,99.90
2022-08-10T09:16:09.109Z,99.90
2022-08-10T09:19:36.256Z,99.90
2022-08-10T09:22:55.901Z,99.90
2022-08-10T09:25:56.088Z,99.90
2022-08-10T09:28:44.803Z,99.90
2022-08-10T09:36:13.533Z,99.90
2022-08-10T09:36:22.445Z,99.90
2022-08-10T09:40:12.171Z,99.90
2022-08-10T09:43:07.606Z,99.90
2022-08-10T09:46:27.962Z,99.90
2022-08-10T09:49:55.395Z,99.90
2022-08-10T09:53:31.794Z,99.90
2022-08-10T09:57:24.381Z,99.90
2022-08-10T10:00:16.335Z,99.90
2022-08-10T10:03:35.791Z,99.90
2022-08-10T10:06:57.937Z,99.90
2022-08-10T10:10:00.014Z,99.90
2022-08-10T10:14:00.160Z,99.90
2022-08-10T10:17:27.153Z,99.90
2022-08-10T10:20:57.747Z,99.90
2022-08-10T10:24:20.351Z,99.90
2022-08-10T10:27:53.228Z,99.90
2022-08-10T10:31:22.307Z,99.90
2022-08-10T10:34:21.492Z,99.50
2022-08-10T10:37:11.342Z,99.80
2022-08-10T10:40:02.134Z,99.10
2022-08-10T10:43:36.032Z,99.90
2022-08-10T10:46:44.687Z,99.10
2022-08-10T10:49:52.677Z,99.20
2022-08-10T10:53:08.879Z,98.70
2022-08-10T10:56:19.314Z,99.30
2022-08-10T10:59:55.667Z,99.60
2022-08-10T11:03:12.167Z,99.40
2022-08-10T11:06:18.123Z,99.30
2022-08-10T11:10:05.511Z,99.30
2022-08-10T11:12:45.092Z,99.70
2022-08-10T11:16:20.420Z,99.70
2022-08-10T11:20:04.481Z,99.90
2022-08-10T11:23:11.812Z,99.90
2022-08-10T11:26:13.712Z,99.90
2022-08-10T11:29:20.273Z,99.90
2022-08-10T11:32:21.038Z,99.90
2022-08-10T11:35:36.539Z,99.50
2022-08-10T11:39:11.077Z,99.70
2022-08-10T11:42:23.202Z,99.30
2022-08-10T11:45:29.327Z,99.90
2022-08-10T11:48:53.357Z,99.60
2022-08-10T11:52:15.558Z,99.10
2022-08-10T11:55:15.670Z,99.80
2022-08-10T11:58:32.652Z,98.70
2022-08-10T12:01:29.820Z,99.10
2022-08-10T12:04:21.722Z,99.50
2022-08-10T12:08:54.926Z,99.30
2022-08-10T12:10:22.902Z,99.40
2022-08-10T12:13:19.811Z,99.20
2022-08-10T12:16:28.632Z,99.20
2022-08-10T12:19:59.010Z,98.90
2022-08-10T12:23:17.187Z,98.90
2022-08-10T12:26:16.617Z,98.70
2022-08-10T12:29:21.407Z,98.20
2022-08-10T12:32:25.448Z,98.30
2022-08-10T12:36:17.294Z,98.30
2022-08-10T12:39:30.042Z,98.20
2022-08-10T12:42:40.657Z,98.00
2022-08-10T12:45:42.457Z,98.40
2022-08-10T12:48:31.125Z,98.10
2022-08-10T12:51:30.489Z,97.30
2022-08-10T12:54:32.692Z,98.30
2022-08-10T12:57:26.288Z,98.20
2022-08-10T13:00:17.672Z,97.30
2022-08-10T13:03:08.781Z,97.40
2022-08-10T13:06:02.213Z,97.50
2022-08-10T13:09:19.847Z,97.20
2022-08-10T13:12:37.940Z,97.40
2022-08-10T13:15:45.226Z,96.50
2022-08-10T13:18:46.093Z,97.80
2022-08-10T13:21:38.880Z,96.90
2022-08-10T13:24:34.093Z,97.40
2022-08-10T13:28:01.291Z,96.90
2022-08-10T13:30:43.119Z,96.30
2022-08-10T13:34:40.656Z,96.40
2022-08-10T13:37:09.809Z,97.10
2022-08-10T13:40:01.918Z,96.20
2022-08-10T13:42:52.685Z,96.70
2022-08-10T13:45:47.851Z,96.10
2022-08-10T13:48:40.602Z,96.10
2022-08-10T13:51:57.346Z,95.80
2022-08-10T13:54:45.349Z,95.90
2022-08-10T13:57:38.366Z,97.20
2022-08-10T14:00:39.650Z,96.20
2022-08-10T14:03:34.395Z,95.80
2022-08-10T14:06:29.635Z,95.30
2022-08-10T14:09:18.503Z,94.90
2022-08-10T14:12:08.062Z,95.20
2022-08-10T14:14:57.417Z,94.90
2022-08-10T14:17:55.291Z,94.30
2022-08-10T14:20:45.274Z,93.90
2022-08-10T14:23:33.091Z,94.60
2022-08-10T14:26:28.265Z,94.60
2022-08-10T14:29:19.815Z,93.20
2022-08-10T14:32:10.428Z,92.20
2022-08-10T14:36:19.326Z,92.50
2022-08-10T14:38:23.534Z,93.60
2022-08-10T14:42:01.294Z,93.70
2022-08-10T14:44:58.518Z,93.20
2022-08-10T14:47:53.484Z,92.80
2022-08-10T14:50:55.715Z,92.80
2022-08-10T14:53:50.588Z,93.80
2022-08-10T14:56:39.232Z,92.60
2022-08-10T15:00:24.134Z,92.60
2022-08-10T15:02:53.204Z,92.90
2022-08-10T15:05:47.777Z,92.90
2022-08-10T15:08:37.143Z,92.60
2022-08-10T15:12:15.755Z,93.20
2022-08-10T15:14:43.257Z,93.20
2022-08-10T15:17:38.003Z,92.80
2022-08-10T15:20:30.023Z,93.00
2022-08-10T15:23:30.616Z,93.10
2022-08-10T15:26:21.499Z,92.40
2022-08-10T15:29:25.221Z,92.60
2022-08-10T15:32:32.452Z,92.90
2022-08-10T15:35:44.262Z,92.50
2022-08-10T15:38:44.399Z,92.30
2022-08-10T15:41:57.934Z,92.60
2022-08-10T15:44:51.050Z,92.50
2022-08-10T15:47:51.132Z,92.00
2022-08-10T15:50:45.400Z,92.40
2022-08-10T15:53:50.993Z,92.50
2022-08-10T15:56:49.852Z,91.00
2022-08-10T16:00:10.267Z,91.50
2022-08-10T16:03:13.211Z,91.20
2022-08-10T16:06:03.756Z,91.70
2022-08-10T16:10:23.851Z,92.30
2022-08-10T16:12:39.105Z,91.80
2022-08-10T16:15:29.309Z,92.30
2022-08-10T16:18:19.691Z,92.00
2022-08-10T16:21:26.920Z,91.90
2022-08-10T16:24:16.386Z,92.00
2022-08-10T16:27:08.640Z,91.70
2022-08-10T16:30:04.182Z,91.60
2022-08-10T16:32:54.175Z,91.70
2022-08-10T16:35:50.041Z,91.90
2022-08-10T16:38:46.991Z,91.50
2022-08-10T16:42:03.456Z,91.40
2022-08-10T16:45:18.915Z,91.60
2022-08-10T16:48:09.403Z,91.40
2022-08-10T16:51:02.203Z,91.90
2022-08-10T16:53:52.302Z,92.20
2022-08-10T16:56:49.301Z,92.50
2022-08-10T16:59:40.286Z,92.20
2022-08-10T17:02:31.499Z,92.60
2022-08-10T17:06:11.169Z,92.30
2022-08-10T17:08:32.859Z,92.20
2022-08-10T17:11:31.345Z,92.50
2022-08-10T17:14:29.809Z,92.80
2022-08-10T17:17:27.802Z,93.20
2022-08-10T17:20:30.294Z,92.40
2022-08-10T17:23:21.182Z,92.20
2022-08-10T17:26:14.480Z,92.30
2022-08-10T17:29:58.252Z,92.60
2022-08-10T17:32:43.977Z,92.90
2022-08-10T17:35:36.649Z,92.50
2022-08-10T17:38:29.045Z,93.00
2022-08-10T17:41:25.506Z,92.90
2022-08-10T17:44:13.662Z,93.50
2022-08-10T17:47:11.281Z,93.10
2022-08-10T17:50:01.313Z,93.40
2022-08-10T17:52:50.456Z,93.00
2022-08-10T17:55:46.099Z,94.00
2022-08-10T17:58:37.441Z,93.40
2022-08-10T18:01:38.881Z,93.50
2022-08-10T18:04:41.988Z,94.30
2022-08-10T18:07:38.723Z,93.70
2022-08-10T18:10:27.214Z,93.70
2022-08-10T18:13:19.510Z,94.30
2022-08-10T18:16:09.934Z,94.20
2022-08-10T18:19:06.793Z,94.30
2022-08-10T18:21:58.501Z,94.40
2022-08-10T18:24:48.552Z,94.60
2022-08-10T18:27:46.498Z,94.90
2022-08-10T18:30:53.585Z,94.90
2022-08-10T18:33:50.325Z,95.30
2022-08-10T18:36:46.711Z,95.60
2022-08-10T18:39:42.016Z,95.50
2022-08-10T18:42:48.360Z,95.70
2022-08-10T18:45:43.755Z,95.90
2022-08-10T18:48:49.690Z,96.10
2022-08-10T18:51:46.169Z,96.20
2022-08-10T18:54:45.661Z,96.50
2022-08-10T18:58:15.011Z,96.60
2022-08-10T19:01:46.975Z,96.70
2022-08-10T19:05:31.328Z,97.20
2022-08-10T19:08:49.242Z,97.20
2022-08-10T19:11:58.555Z,97.50
2022-08-10T19:15:06.579Z,97.80
2022-08-10T19:18:37.240Z,97.90
2022-08-10T19:21:44.852Z,98.30
2022-08-10T19:25:18.466Z,98.80
2022-08-10T19:28:56.751Z,99.10
2022-08-10T19:32:27.504Z,99.20
2022-08-10T19:36:04.635Z,99.40
2022-08-10T19:39:28.585Z,99.60
2022-08-10T19:42:39.311Z,99.70
2022-08-10T19:46:02.137Z,99.90
2022-08-10T19:49:33.001Z,99.90
2022-08-10T19:53:05.775Z,99.90
2022-08-10T19:56:34.437Z,99.90
2022-08-10T20:00:16.725Z,99.90
2022-08-10T20:03:27.525Z,99.90
2022-08-10T20:06:48.680Z,99.90
2022-08-10T20:09:49.516Z,99.90
2022-08-10T20:13:28.406Z,99.90
2022-08-10T20:16:30.324Z,99.90
2022-08-10T20:19:52.929Z,99.90
2022-08-10T20:23:25.221Z,99.90
2022-08-10T20:26:46.777Z,99.90
2022-08-10T20:29:58.651Z,99.90
2022-08-10T20:33:09.195Z,99.90
2022-08-10T20:36:42.562Z,99.90
2022-08-10T20:40:18.344Z,99.90
2022-08-10T20:43:20.792Z,99.90
2022-08-10T20:46:32.617Z,99.90
2022-08-10T20:49:34.592Z,99.90
2022-08-10T20:52:26.013Z,99.90
2022-08-10T20:55:15.477Z,99.90
2022-08-10T20:58:48.187Z,99.90
2022-08-10T21:02:06.627Z,99.90
2022-08-10T21:05:31.890Z,99.90
2022-08-10T21:09:04.233Z,99.90
2022-08-10T21:12:49.942Z,99.90
2022-08-10T21:16:09.144Z,99.90
2022-08-10T21:19:55.542Z,99.90
2022-08-10T21:22:48.424Z,99.90
2022-08-10T21:26:14.989Z,99.90
2022-08-10T21:33:26.773Z,99.90
2022-08-10T21:36:35.029Z,99.90
2022-08-10T21:39:48.070Z,99.90
2022-08-10T21:43:59.209Z,99.90
2022-08-10T21:47:39.409Z,99.90
2022-08-10T21:51:14.882Z,99.90
2022-08-10T21:54:43.160Z,99.90
2022-08-10T21:58:22.539Z,99.90
2022-08-10T22:01:51.427Z,99.90
2022-08-10T22:04:59.135Z,99.90
2022-08-10T22:08:12.633Z,99.90
2022-08-10T22:11:27.224Z,99.90
2022-08-10T22:14:44.299Z,99.90
2022-08-10T22:18:04.827Z,99.90
2022-08-10T22:21:45.992Z,99.90
2022-08-10T22:25:33.580Z,99.90
2022-08-10T22:28:40.274Z,99.90
2022-08-10T22:31:24.822Z,99.90
2022-08-10T22:32:21.798Z,99.90
2022-08-10T22:35:55.696Z,99.90
2022-08-10T22:40:11.782Z,99.90
2022-08-10T22:43:10.630Z,99.90
2022-08-10T22:46:25.489Z,99.90
2022-08-10T22:49:20.689Z,99.90
2022-08-10T22:52:18.049Z,99.90
2022-08-10T22:55:34.002Z,99.90
2022-08-10T22:58:47.948Z,99.90
2022-08-10T23:02:08.552Z,99.90
2022-08-10T23:05:24.778Z,99.90
2022-08-10T23:08:29.662Z,99.90
2022-08-10T23:11:28.633Z,99.90
2022-08-10T23:14:19.268Z,99.90
2022-08-10T23:18:02.087Z,99.90
2022-08-10T23:20:47.449Z,99.90
2022-08-10T23:23:42.309Z,99.90
2022-08-10T23:26:34.638Z,99.90
2022-08-10T23:29:24.373Z,99.90
2022-08-10T23:32:20.048Z,99.90
2022-08-10T23:36:29.969Z,99.90
2022-08-10T23:38:32.368Z,99.90
2022-08-10T23:41:30.328Z,99.90
2022-08-10T23:44:21.092Z,99.90
2022-08-10T23:47:13.928Z,99.90
2022-08-10T23:50:03.840Z,99.90
2022-08-10T23:52:57.469Z,99.90
2022-08-10T23:55:49.247Z,99.90
2022-08-10T23:58:56.753Z,99.90
